createdAt,value
2023-03-18T00:01:10.277Z,14.75
2023-03-18T00:03:38.860Z,19.85
2023-03-18T00:06:11.865Z,13.88
2023-03-18T00:08:39.801Z,9.10
2023-03-18T00:11:07.859Z,9.77
2023-03-18T00:13:35.376Z,9.13
2023-03-18T00:16:03.333Z,15.10
2023-03-18T00:18:31.585Z,7.35
2023-03-18T00:20:59.966Z,7.28
2023-03-18T00:23:27.955Z,7.72
2023-03-18T00:25:56.449Z,15.60
2023-03-18T00:31:09.838Z,8.63
2023-03-18T00:33:41.354Z,8.27
2023-03-18T00:36:13.827Z,10.95
2023-03-18T00:38:42.237Z,8.35
2023-03-18T00:41:16.233Z,12.60
2023-03-18T00:43:52.529Z,8.32
2023-03-18T00:46:26.594Z,15.82
2023-03-18T00:48:54.707Z,11.00
2023-03-18T00:51:23.016Z,13.40
2023-03-18T00:53:52.750Z,14.32
2023-03-18T00:56:22.259Z,8.60
2023-03-18T00:58:50.520Z,11.80
2023-03-18T01:06:52.347Z,15.20
2023-03-18T01:09:19.677Z,15.77
2023-03-18T01:11:47.492Z,12.95
2023-03-18T01:14:14.692Z,13.05
2023-03-18T01:16:41.818Z,13.25
2023-03-18T01:21:53.747Z,17.70
2023-03-18T01:24:21.039Z,13.65
2023-03-18T01:26:48.252Z,16.67
2023-03-18T01:29:15.427Z,13.20
2023-03-18T01:31:43.483Z,19.55
2023-03-18T01:34:18.366Z,14.20
2023-03-18T01:36:46.287Z,14.50
2023-03-18T01:39:13.439Z,17.58
2023-03-18T01:41:40.947Z,12.93
2023-03-18T01:44:14.639Z,15.48
2023-03-18T01:46:46.152Z,17.73
2023-03-18T01:49:21.533Z,17.50
2023-03-18T01:52:13.526Z,16.00
2023-03-18T01:54:43.941Z,13.90
2023-03-18T01:57:11.535Z,18.02
2023-03-18T01:59:41.418Z,13.32
2023-03-18T02:02:10.340Z,15.90
2023-03-18T02:04:50.744Z,12.68
2023-03-18T02:07:22.574Z,13.32
2023-03-18T02:12:35.509Z,15.05
2023-03-18T02:15:04.836Z,14.70
2023-03-18T02:17:33.895Z,15.02
2023-03-18T02:20:17.513Z,14.07
2023-03-18T02:22:48.928Z,14.45
2023-03-18T02:25:34.751Z,19.02
2023-03-18T02:33:36.518Z,14.82
2023-03-18T02:36:07.052Z,17.45
2023-03-18T02:41:01.571Z,13.52
2023-03-18T02:43:31.226Z,13.18
2023-03-18T02:46:06.266Z,13.13
2023-03-18T02:48:35.809Z,16.77
2023-03-18T02:51:03.442Z,12.32
2023-03-18T02:53:32.089Z,11.23
2023-03-18T02:55:59.228Z,11.13
2023-03-18T03:09:36.246Z,15.45
2023-03-18T03:14:45.562Z,13.57
2023-03-18T03:17:12.985Z,17.67
2023-03-18T03:19:40.718Z,11.95
2023-03-18T03:22:08.042Z,14.88
2023-03-18T03:32:57.414Z,8.98
2023-03-18T03:35:24.620Z,8.93
2023-03-18T03:37:51.825Z,13.43
2023-03-18T03:40:20.523Z,14.02
2023-03-18T03:42:48.125Z,9.98
2023-03-18T03:45:16.221Z,10.20
2023-03-18T03:47:46.547Z,16.05
2023-03-18T03:50:14.223Z,11.38
2023-03-18T03:52:42.286Z,12.27
2023-03-18T03:55:13.179Z,10.50
2023-03-18T03:57:47.175Z,9.57
2023-03-18T04:00:16.923Z,15.07
2023-03-18T04:02:44.964Z,10.07
2023-03-18T04:05:13.442Z,15.27
2023-03-18T04:07:41.622Z,15.27
2023-03-18T04:10:09.704Z,7.25
2023-03-18T04:15:18.394Z,10.90
2023-03-18T04:17:45.467Z,9.95
2023-03-18T04:20:13.203Z,9.18
2023-03-18T04:22:40.741Z,12.00
2023-03-18T04:30:08.440Z,9.82
2023-03-18T04:32:35.801Z,10.90
2023-03-18T04:35:03.418Z,11.88
2023-03-18T04:37:30.973Z,10.98
2023-03-18T04:39:59.306Z,14.18
2023-03-18T04:45:13.242Z,14.85
2023-03-18T04:47:41.067Z,15.52
2023-03-18T04:50:11.164Z,9.43
2023-03-18T04:52:39.078Z,11.80
2023-03-18T04:55:07.746Z,9.80
2023-03-18T04:57:37.520Z,11.38
2023-03-18T05:00:06.347Z,10.30
2023-03-18T05:02:33.548Z,11.27
2023-03-18T05:05:01.216Z,12.15
2023-03-18T05:07:28.388Z,9.65
2023-03-18T05:09:55.522Z,11.50
2023-03-18T05:12:22.519Z,9.93
2023-03-18T05:14:49.760Z,12.65
2023-03-18T05:17:16.920Z,10.23
2023-03-18T05:19:44.815Z,16.77
2023-03-18T05:22:12.416Z,15.05
2023-03-18T05:24:40.232Z,11.82
2023-03-18T05:29:47.181Z,10.45
2023-03-18T05:32:14.939Z,25.75
2023-03-18T05:34:42.472Z,12.25
2023-03-18T05:37:11.031Z,10.35
2023-03-18T05:39:38.344Z,13.88
2023-03-18T05:44:49.811Z,11.82
2023-03-18T05:47:16.897Z,9.20
2023-03-18T05:49:43.988Z,10.63
2023-03-18T05:52:11.374Z,10.23
2023-03-18T05:54:38.590Z,9.38
2023-03-18T05:59:46.603Z,13.27
2023-03-18T06:02:13.673Z,14.27
2023-03-18T06:04:40.931Z,8.93
2023-03-18T06:07:08.259Z,11.23
2023-03-18T06:09:35.310Z,10.82
2023-03-18T06:14:47.572Z,9.38
2023-03-18T06:17:15.557Z,8.77
2023-03-18T06:19:43.784Z,8.10
2023-03-18T06:22:11.062Z,14.65
2023-03-18T06:24:38.112Z,9.32
2023-03-18T06:27:16.028Z,6.60
2023-03-18T06:29:43.878Z,9.18
2023-03-18T06:32:11.207Z,7.35
2023-03-18T06:34:38.283Z,8.05
2023-03-18T06:37:05.610Z,7.38
2023-03-18T06:39:32.713Z,9.02
2023-03-18T06:44:42.902Z,9.10
2023-03-18T06:47:10.270Z,9.05
2023-03-18T06:49:37.321Z,6.57
2023-03-18T06:52:04.389Z,10.98
2023-03-18T06:54:31.595Z,19.27
2023-03-18T06:57:06.956Z,9.00
2023-03-18T06:59:34.119Z,6.75
2023-03-18T07:02:01.146Z,7.75
2023-03-18T07:04:29.034Z,6.78
2023-03-18T07:06:56.245Z,6.55
2023-03-18T07:09:24.507Z,9.55
2023-03-18T07:14:35.600Z,7.93
2023-03-18T07:17:03.810Z,8.00
2023-03-18T07:19:32.370Z,10.48
2023-03-18T07:22:00.537Z,8.90
2023-03-18T07:24:28.943Z,7.68
2023-03-18T07:27:01.963Z,6.72
2023-03-18T07:29:30.208Z,6.20
2023-03-18T07:31:57.310Z,8.70
2023-03-18T07:34:24.393Z,5.63
2023-03-18T07:36:51.955Z,6.13
2023-03-18T07:39:19.110Z,8.30
2023-03-18T07:44:24.027Z,10.35
2023-03-18T07:46:51.485Z,16.45
2023-03-18T07:49:18.790Z,10.88
2023-03-18T07:51:46.046Z,6.88
2023-03-18T07:54:14.261Z,9.02
2023-03-18T07:59:28.629Z,6.40
2023-03-18T08:01:55.764Z,11.10
2023-03-18T08:04:23.874Z,5.50
2023-03-18T08:06:51.022Z,5.35
2023-03-18T08:09:18.386Z,7.82
2023-03-18T08:11:52.128Z,8.23
2023-03-18T08:14:19.371Z,7.60
2023-03-18T08:16:46.881Z,8.80
2023-03-18T08:19:14.013Z,5.63
2023-03-18T08:21:41.563Z,6.25
2023-03-18T08:24:09.698Z,8.35
2023-03-18T08:29:18.916Z,6.75
2023-03-18T08:31:46.945Z,10.05
2023-03-18T08:34:14.336Z,9.20
2023-03-18T08:36:42.635Z,7.13
2023-03-18T08:39:09.977Z,5.38
2023-03-18T08:41:46.162Z,7.18
2023-03-18T08:44:13.335Z,5.68
2023-03-18T08:46:40.674Z,8.90
2023-03-18T08:49:07.817Z,6.65
2023-03-18T08:51:35.449Z,7.00
2023-03-18T08:54:02.610Z,3.70
2023-03-18T08:59:07.247Z,5.28
2023-03-18T09:01:34.348Z,7.57
2023-03-18T09:04:01.490Z,5.40
2023-03-18T09:06:29.260Z,5.30
2023-03-18T09:08:56.444Z,7.40
2023-03-18T09:14:08.536Z,2.67
2023-03-18T09:16:36.373Z,8.82
2023-03-18T09:19:03.768Z,4.82
2023-03-18T09:21:31.711Z,4.85
2023-03-18T09:23:59.099Z,7.47
2023-03-18T09:26:26.544Z,8.07
2023-03-18T09:28:53.642Z,4.82
2023-03-18T09:31:23.490Z,6.03
2023-03-18T09:33:50.657Z,6.05
2023-03-18T09:36:19.582Z,4.28
2023-03-18T09:38:47.941Z,2.38
2023-03-18T09:41:30.672Z,5.00
2023-03-18T09:44:08.662Z,3.85
2023-03-18T09:46:44.980Z,5.40
2023-03-18T09:49:30.920Z,5.10
2023-03-18T09:51:57.961Z,3.58
2023-03-18T09:54:32.737Z,4.07
2023-03-18T09:56:59.941Z,4.28
2023-03-18T09:59:31.769Z,5.25
2023-03-18T10:02:00.539Z,5.50
2023-03-18T10:04:27.820Z,6.78
2023-03-18T10:07:00.603Z,5.95
2023-03-18T10:09:30.040Z,4.75
2023-03-18T10:12:26.919Z,2.90
2023-03-18T10:15:04.349Z,3.30
2023-03-18T10:17:51.692Z,3.47
2023-03-18T10:23:21.826Z,3.42
2023-03-18T10:25:53.907Z,4.75
2023-03-18T10:28:30.178Z,6.68
2023-03-18T10:31:00.165Z,3.97
2023-03-18T10:33:33.807Z,4.05
2023-03-18T10:36:10.271Z,3.38
2023-03-18T10:38:46.594Z,3.05
2023-03-18T10:41:20.784Z,3.13
2023-03-18T10:43:51.797Z,3.85
2023-03-18T10:46:20.293Z,4.97
2023-03-18T10:48:49.919Z,6.53
2023-03-18T10:51:23.029Z,3.15
2023-03-18T10:53:57.061Z,6.32
2023-03-18T10:56:24.496Z,3.25
2023-03-18T10:58:53.060Z,3.28
2023-03-18T11:01:23.192Z,3.08
2023-03-18T11:06:20.418Z,4.88
2023-03-18T11:08:50.607Z,2.77
2023-03-18T11:11:29.439Z,4.63
2023-03-18T11:16:45.753Z,4.20
2023-03-18T11:19:25.482Z,4.88
2023-03-18T11:22:01.971Z,3.53
2023-03-18T11:24:36.471Z,7.90
2023-03-18T11:27:04.334Z,2.28
2023-03-18T11:29:33.412Z,2.90
2023-03-18T11:34:36.088Z,2.88
2023-03-18T11:37:08.292Z,4.53
2023-03-18T11:39:37.627Z,4.13
2023-03-18T11:42:17.441Z,4.43
2023-03-18T11:44:44.518Z,2.97
2023-03-18T11:47:35.550Z,3.92
2023-03-18T11:50:05.798Z,6.90
2023-03-18T11:55:09.966Z,4.05
2023-03-18T11:57:45.185Z,2.08
2023-03-18T12:00:38.687Z,3.30
2023-03-18T12:03:24.371Z,3.22
2023-03-18T12:06:00.242Z,3.10
2023-03-18T12:08:32.818Z,4.30
2023-03-18T12:11:06.769Z,7.60
2023-03-18T12:13:58.803Z,3.70
2023-03-18T12:16:26.820Z,6.20
2023-03-18T12:19:04.951Z,2.00
2023-03-18T12:21:48.384Z,4.93
2023-03-18T12:24:44.825Z,5.32
2023-03-18T12:27:16.634Z,4.75
2023-03-18T12:29:53.687Z,3.22
2023-03-18T12:32:34.760Z,4.60
2023-03-18T12:35:07.655Z,6.55
2023-03-18T12:45:57.693Z,3.83
2023-03-18T12:48:43.614Z,3.67
2023-03-18T12:51:13.414Z,8.80
2023-03-18T12:53:49.099Z,7.63
2023-03-18T12:56:24.404Z,5.13
2023-03-18T12:58:55.858Z,3.97
2023-03-18T13:01:28.066Z,6.00
2023-03-18T13:03:58.409Z,3.53
2023-03-18T13:06:29.634Z,6.55
2023-03-18T13:08:59.968Z,6.05
2023-03-18T13:13:57.440Z,3.50
2023-03-18T13:19:17.721Z,5.13
2023-03-18T13:21:48.448Z,5.20
2023-03-18T13:24:34.845Z,3.92
2023-03-18T13:27:07.734Z,2.28
2023-03-18T13:29:45.152Z,3.78
2023-03-18T13:32:32.535Z,5.65
2023-03-18T13:35:13.156Z,4.10
2023-03-18T13:37:41.918Z,4.47
2023-03-18T13:43:06.103Z,6.20
2023-03-18T13:48:03.656Z,6.80
2023-03-18T13:50:34.149Z,5.20
2023-03-18T13:53:02.775Z,4.40
2023-03-18T13:58:10.844Z,7.55
2023-03-18T14:00:42.249Z,4.40
2023-03-18T14:03:23.235Z,4.90
2023-03-18T14:06:15.723Z,8.27
2023-03-18T14:08:43.121Z,8.00
2023-03-18T14:11:16.901Z,5.18
2023-03-18T14:13:45.163Z,5.88
2023-03-18T14:22:06.887Z,5.13
2023-03-18T14:24:41.785Z,7.72
2023-03-18T14:27:20.489Z,3.55
2023-03-18T14:29:48.676Z,6.95
2023-03-18T14:32:39.305Z,4.03
2023-03-18T14:35:17.486Z,7.88
2023-03-18T14:38:01.081Z,7.85
2023-03-18T14:45:59.875Z,3.45
2023-03-18T14:48:32.146Z,2.85
2023-03-18T14:51:16.704Z,4.07
2023-03-18T14:53:48.650Z,5.07
2023-03-18T14:56:23.684Z,7.50
2023-03-18T14:58:54.078Z,5.13
2023-03-18T15:06:59.236Z,7.60
2023-03-18T15:09:27.896Z,4.30
2023-03-18T15:11:55.475Z,6.63
2023-03-18T15:14:27.525Z,3.42
2023-03-18T15:16:56.016Z,5.60
2023-03-18T15:19:25.110Z,4.47
2023-03-18T15:24:43.816Z,5.70
2023-03-18T15:38:20.976Z,3.67
2023-03-18T15:40:48.502Z,6.03
2023-03-18T15:43:42.856Z,5.90
2023-03-18T15:48:43.072Z,3.17
2023-03-18T15:51:24.942Z,3.30
2023-03-18T15:53:57.270Z,4.18
2023-03-18T15:56:31.785Z,7.70
2023-03-18T15:59:07.248Z,8.52
2023-03-18T16:01:35.663Z,5.60
2023-03-18T16:04:10.603Z,6.63
2023-03-18T16:06:38.646Z,6.13
2023-03-18T16:09:19.550Z,7.05
2023-03-18T16:11:49.067Z,5.13
2023-03-18T16:14:29.418Z,2.38
2023-03-18T16:19:28.564Z,4.70
2023-03-18T16:24:37.471Z,6.47
2023-03-18T16:27:05.743Z,6.75
2023-03-18T16:34:58.166Z,2.53
2023-03-18T16:37:29.677Z,5.70
2023-03-18T16:42:33.729Z,5.10
2023-03-18T16:47:55.420Z,2.55
2023-03-18T16:50:26.514Z,5.40
2023-03-18T16:52:53.593Z,3.28
2023-03-18T16:55:23.782Z,2.40
2023-03-18T17:00:36.304Z,4.35
2023-03-18T17:03:04.765Z,3.80
2023-03-18T17:05:32.359Z,7.95
2023-03-18T17:07:59.809Z,1.27
2023-03-18T17:10:27.220Z,4.13
2023-03-18T17:20:57.237Z,3.67
2023-03-18T17:23:27.426Z,3.40
2023-03-18T17:26:03.249Z,2.58
2023-03-18T17:28:37.431Z,2.42
2023-03-18T17:31:07.124Z,3.30
2023-03-18T17:36:28.576Z,3.63
2023-03-18T17:38:58.845Z,1.60
2023-03-18T17:41:26.310Z,3.47
2023-03-18T17:43:56.204Z,6.35
2023-03-18T17:46:24.141Z,3.80
2023-03-18T17:48:51.762Z,3.00
2023-03-18T17:51:22.943Z,4.53
2023-03-18T17:53:52.979Z,5.15
2023-03-18T17:56:21.043Z,4.55
2023-03-18T17:58:51.928Z,4.22
2023-03-18T18:01:22.134Z,3.03
2023-03-18T18:03:49.494Z,2.30
2023-03-18T18:06:18.215Z,5.68
2023-03-18T18:08:45.958Z,11.15
2023-03-18T18:11:27.286Z,4.60
2023-03-18T18:13:58.226Z,3.80
2023-03-18T18:16:25.631Z,3.50
2023-03-18T18:18:56.317Z,4.65
2023-03-18T18:27:37.577Z,3.78
2023-03-18T18:30:04.925Z,6.40
2023-03-18T18:32:33.997Z,6.22
2023-03-18T18:35:01.123Z,1.77
2023-03-18T18:37:29.288Z,7.18
2023-03-18T18:39:56.356Z,6.15
2023-03-18T18:42:23.492Z,5.72
2023-03-18T18:44:52.768Z,4.70
2023-03-18T18:47:20.067Z,7.03
2023-03-18T18:49:47.369Z,8.55
2023-03-18T18:52:14.940Z,3.85
2023-03-18T18:54:42.942Z,4.70
2023-03-18T18:57:22.971Z,4.40
2023-03-18T18:59:50.082Z,9.35
2023-03-18T19:02:29.889Z,5.03
2023-03-18T19:04:57.403Z,5.03
2023-03-18T19:07:24.934Z,4.32
2023-03-18T19:09:52.326Z,2.53
2023-03-18T19:12:19.439Z,5.63
2023-03-18T19:14:49.303Z,5.05
2023-03-18T19:17:20.087Z,5.20
2023-03-18T19:19:47.659Z,4.13
2023-03-18T19:22:19.286Z,2.90
2023-03-18T19:24:48.849Z,4.82
2023-03-18T19:27:22.468Z,4.57
2023-03-18T19:29:50.397Z,4.07
2023-03-18T19:32:21.127Z,4.30
2023-03-18T19:34:49.157Z,8.30
2023-03-18T19:37:29.064Z,3.80
2023-03-18T19:39:57.014Z,5.40
2023-03-18T19:42:26.018Z,6.32
2023-03-18T19:44:54.999Z,6.78
2023-03-18T19:47:26.923Z,8.25
2023-03-18T19:49:54.341Z,4.75
2023-03-18T19:52:23.210Z,7.55
2023-03-18T19:54:58.026Z,4.55
2023-03-18T19:57:26.127Z,6.32
2023-03-18T19:59:54.202Z,7.15
2023-03-18T20:07:58.429Z,5.70
2023-03-18T20:10:26.274Z,6.35
2023-03-18T20:32:14.364Z,2.90
2023-03-18T20:34:45.030Z,2.80
2023-03-18T20:37:19.136Z,4.38
2023-03-18T20:39:46.556Z,4.03
2023-03-18T20:42:17.366Z,3.63
2023-03-18T20:44:48.121Z,4.32
2023-03-18T20:49:59.306Z,3.17
2023-03-18T20:52:28.240Z,4.30
2023-03-18T20:55:04.305Z,4.78
2023-03-18T20:57:32.627Z,4.82
2023-03-18T21:08:04.461Z,4.40
2023-03-18T21:10:31.606Z,7.10
2023-03-18T21:12:58.708Z,10.25
2023-03-18T21:15:27.978Z,11.52
2023-03-18T21:20:36.415Z,10.93
2023-03-18T21:23:03.503Z,9.15
2023-03-18T21:25:30.821Z,10.48
2023-03-18T21:27:58.252Z,17.67
2023-03-18T21:30:25.259Z,9.63
2023-03-18T21:32:59.299Z,8.52
2023-03-18T21:35:26.996Z,14.77
2023-03-18T21:37:54.049Z,8.65
2023-03-18T21:40:23.017Z,6.80
2023-03-18T21:42:51.442Z,4.38
2023-03-18T21:45:20.671Z,6.88
2023-03-18T21:50:25.105Z,7.00
2023-03-18T21:52:52.955Z,4.93
2023-03-18T21:55:20.744Z,7.53
2023-03-18T21:57:49.134Z,7.88
2023-03-18T22:00:20.151Z,8.57
2023-03-18T22:02:53.271Z,12.05
2023-03-18T22:05:22.849Z,9.30
2023-03-18T22:07:50.792Z,5.67
2023-03-18T22:10:18.993Z,4.50
2023-03-18T22:12:46.270Z,9.70
2023-03-18T22:15:25.510Z,7.03
2023-03-18T22:17:52.538Z,6.82
2023-03-18T22:20:19.663Z,9.63
2023-03-18T22:22:47.344Z,7.07
2023-03-18T22:25:33.888Z,11.25
2023-03-18T22:28:01.295Z,16.55
2023-03-18T22:30:29.443Z,8.77
2023-03-18T22:32:56.957Z,7.57
2023-03-18T22:38:16.926Z,9.50
2023-03-18T22:40:44.679Z,5.88
2023-03-18T22:43:31.413Z,10.35
2023-03-18T22:45:59.487Z,9.77
2023-03-18T22:48:26.963Z,8.10
2023-03-18T22:50:54.393Z,12.57
2023-03-18T23:01:28.377Z,6.15
2023-03-18T23:03:55.768Z,9.65
2023-03-18T23:06:24.002Z,11.40
2023-03-18T23:08:51.265Z,10.90
2023-03-18T23:14:07.716Z,9.63
2023-03-18T23:16:34.773Z,7.75
2023-03-18T23:19:01.840Z,5.38
2023-03-18T23:21:28.883Z,6.47
2023-03-18T23:23:56.788Z,7.93
2023-03-18T23:26:23.817Z,10.98
2023-03-18T23:28:50.802Z,11.30
2023-03-18T23:31:18.412Z,6.80
2023-03-18T23:33:45.785Z,5.82
2023-03-18T23:36:12.948Z,6.32
2023-03-18T23:38:40.499Z,6.43
2023-03-18T23:41:08.093Z,8.00
2023-03-18T23:43:35.481Z,5.47
2023-03-18T23:46:03.594Z,7.63
2023-03-18T23:48:31.350Z,8.05
2023-03-18T23:50:58.420Z,6.82
2023-03-18T23:53:25.542Z,7.43
2023-03-18T23:55:52.550Z,5.22
2023-03-18T23:58:19.593Z,6.22
